createdAt,value
2023-04-12T00:00:09.457Z,1013.2
2023-04-12T00:01:09.466Z,1013.2
2023-04-12T00:02:09.629Z,1013.2
2023-04-12T00:03:09.840Z,1013.2
2023-04-12T00:04:09.823Z,1013.2
2023-04-12T00:05:09.623Z,1013.3
2023-04-12T00:06:09.473Z,1013.2
2023-04-12T00:07:09.479Z,1013.2
2023-04-12T00:08:09.457Z,1013.2
2023-04-12T00:09:09.497Z,1013.1
2023-04-12T00:10:09.868Z,1013.2
2023-04-12T00:11:09.473Z,1013.2
2023-04-12T00:12:09.475Z,1013.2
2023-04-12T00:13:09.480Z,1013.2
2023-04-12T00:14:09.618Z,1013.2
2023-04-12T00:15:09.502Z,1013.2
2023-04-12T00:16:09.510Z,1013.2
2023-04-12T00:17:09.435Z,1013.2
2023-04-12T00:18:09.450Z,1013.2
2023-04-12T00:19:09.414Z,1013.3
2023-04-12T00:20:09.456Z,1013.2
2023-04-12T00:21:09.466Z,1013.3
2023-04-12T00:22:09.452Z,1013.2
2023-04-12T00:23:09.476Z,1013.2
2023-04-12T00:24:09.509Z,1013.2
2023-04-12T00:25:09.809Z,1013.2
2023-04-12T00:26:09.416Z,1013.1
2023-04-12T00:27:09.423Z,1013.1
2023-04-12T00:28:09.502Z,1013.2
2023-04-12T00:29:09.416Z,1013.1
2023-04-12T00:30:09.437Z,1013.2
2023-04-12T00:31:09.674Z,1013.1
2023-04-12T00:32:09.489Z,1013.1
2023-04-12T00:33:09.396Z,1013.2
2023-04-12T00:34:09.468Z,1013.1
2023-04-12T00:35:09.446Z,1013.1
2023-04-12T00:36:09.671Z,1013.1
2023-04-12T00:37:09.388Z,1013.1
2023-04-12T00:38:09.408Z,1013.1
2023-04-12T00:39:09.544Z,1013.1
2023-04-12T00:40:09.467Z,1013.1
2023-04-12T00:41:09.464Z,1013.1
2023-04-12T00:42:09.422Z,1013.1
2023-04-12T00:43:09.370Z,1013.1
2023-04-12T00:44:09.394Z,1013.0
2023-04-12T00:45:09.495Z,1013.2
2023-04-12T00:46:09.530Z,1013.1
2023-04-12T00:47:09.621Z,1013.1
2023-04-12T00:48:09.369Z,1013.1
2023-04-12T00:49:09.390Z,1013.1
2023-04-12T00:50:09.406Z,1013.0
2023-04-12T00:51:09.442Z,1013.1
2023-04-12T00:52:09.450Z,1013.1
2023-04-12T00:53:09.382Z,1013.1
2023-04-12T00:54:09.359Z,1013.1
2023-04-12T00:55:09.441Z,1013.0
2023-04-12T00:56:09.470Z,1013.1
2023-04-12T00:57:09.401Z,1013.1
2023-04-12T00:58:09.572Z,1013.1
2023-04-12T00:59:09.446Z,1013.1
2023-04-12T01:00:09.341Z,1013.1
2023-04-12T01:01:09.403Z,1013.1
2023-04-12T01:02:09.523Z,1013.0
2023-04-12T01:03:09.605Z,1013.0
2023-04-12T01:04:09.825Z,1013.1
2023-04-12T01:05:09.397Z,1013.1
2023-04-12T01:06:09.373Z,1013.0
2023-04-12T01:07:09.343Z,1013.1
2023-04-12T01:08:09.412Z,1013.0
2023-04-12T01:09:09.586Z,1013.1
2023-04-12T01:10:09.372Z,1013.0
2023-04-12T01:11:09.369Z,1013.0
2023-04-12T01:12:09.341Z,1013.0
2023-04-12T01:13:09.395Z,1013.1
2023-04-12T01:14:09.409Z,1013.0
2023-04-12T01:15:09.369Z,1013.1
2023-04-12T01:16:09.400Z,1013.1
2023-04-12T01:17:09.365Z,1013.0
2023-04-12T01:18:09.335Z,1013.0
2023-04-12T01:19:09.349Z,1013.0
2023-04-12T01:20:09.531Z,1013.0
2023-04-12T01:21:09.302Z,1013.1
2023-04-12T01:22:09.310Z,1013.0
2023-04-12T01:23:09.320Z,1013.0
2023-04-12T01:24:09.370Z,1013.1
2023-04-12T01:25:09.337Z,1013.0
2023-04-12T01:26:09.418Z,1013.1
2023-04-12T01:27:09.335Z,1013.1
2023-04-12T01:28:09.312Z,1013.0
2023-04-12T01:29:13.875Z,1013.1
2023-04-12T01:30:09.338Z,1013.1
2023-04-12T01:31:09.580Z,1013.1
2023-04-12T01:32:09.390Z,1013.0
2023-04-12T01:33:09.368Z,1013.0
2023-04-12T01:34:09.324Z,1013.0
2023-04-12T01:35:09.290Z,1013.0
2023-04-12T01:36:09.364Z,1013.0
2023-04-12T01:37:09.390Z,1013.0
2023-04-12T01:38:09.289Z,1013.0
2023-04-12T01:39:09.327Z,1013.1
2023-04-12T01:40:09.336Z,1013.1
2023-04-12T01:41:09.367Z,1013.0
2023-04-12T01:42:32.282Z,1013.0
2023-04-12T01:43:09.364Z,1013.0
2023-04-12T01:44:09.292Z,1013.0
2023-04-12T01:45:09.285Z,1013.0
2023-04-12T01:46:09.339Z,1012.9
2023-04-12T01:47:09.337Z,1013.0
2023-04-12T01:48:09.347Z,1013.0
2023-04-12T01:49:09.293Z,1013.0
2023-04-12T01:50:09.317Z,1013.0
2023-04-12T01:51:09.286Z,1012.9
2023-04-12T01:52:09.426Z,1012.9
2023-04-12T01:53:09.347Z,1013.0
2023-04-12T01:54:09.286Z,1013.0
2023-04-12T01:55:09.245Z,1012.9
2023-04-12T01:56:09.344Z,1012.9
2023-04-12T01:57:09.323Z,1012.9
2023-04-12T01:58:09.254Z,1012.9
2023-04-12T01:59:09.250Z,1012.9
2023-04-12T02:00:09.279Z,1012.9
2023-04-12T02:01:09.364Z,1012.9
2023-04-12T02:02:09.480Z,1012.9
2023-04-12T02:03:09.756Z,1012.8
2023-04-12T02:04:09.424Z,1012.9
2023-04-12T02:05:09.832Z,1012.8
2023-04-12T02:06:09.276Z,1012.9
2023-04-12T02:07:09.284Z,1012.8
2023-04-12T02:08:09.542Z,1012.8
2023-04-12T02:09:09.306Z,1012.9
2023-04-12T02:10:09.255Z,1012.8
2023-04-12T02:11:09.257Z,1012.8
2023-04-12T02:12:09.259Z,1012.8
2023-04-12T02:13:09.227Z,1012.8
2023-04-12T02:14:09.265Z,1012.7
2023-04-12T02:15:09.246Z,1012.7
2023-04-12T02:16:09.319Z,1012.8
2023-04-12T02:17:09.258Z,1012.8
2023-04-12T02:18:09.245Z,1012.8
2023-04-12T02:19:09.300Z,1012.8
2023-04-12T02:20:09.296Z,1012.8
2023-04-12T02:21:09.263Z,1012.8
2023-04-12T02:22:09.216Z,1012.8
2023-04-12T02:23:09.243Z,1012.8
2023-04-12T02:24:09.226Z,1012.8
2023-04-12T02:25:09.358Z,1012.8
2023-04-12T02:26:09.266Z,1012.8
2023-04-12T02:27:09.223Z,1012.9
2023-04-12T02:28:09.244Z,1012.8
2023-04-12T02:29:09.270Z,1012.8
2023-04-12T02:30:09.206Z,1012.8
2023-04-12T02:31:09.357Z,1012.8
2023-04-12T02:32:09.247Z,1012.8
2023-04-12T02:33:09.319Z,1012.8
2023-04-12T02:34:09.301Z,1012.8
2023-04-12T02:35:09.241Z,1012.8
2023-04-12T02:36:09.544Z,1012.8
2023-04-12T02:37:09.489Z,1012.8
2023-04-12T02:38:09.191Z,1012.9
2023-04-12T02:39:09.188Z,1012.8
2023-04-12T02:40:09.183Z,1012.9
2023-04-12T02:41:09.238Z,1012.8
2023-04-12T02:42:09.172Z,1012.9
2023-04-12T02:43:09.284Z,1012.9
2023-04-12T02:44:09.190Z,1012.8
2023-04-12T02:45:09.199Z,1012.8
2023-04-12T02:46:09.240Z,1012.9
2023-04-12T02:47:09.170Z,1012.8
2023-04-12T02:48:09.237Z,1012.8
2023-04-12T02:49:09.232Z,1012.8
2023-04-12T02:50:09.225Z,1012.8
2023-04-12T02:51:09.323Z,1012.8
2023-04-12T02:52:09.157Z,1012.8
2023-04-12T02:53:09.226Z,1012.9
2023-04-12T02:54:09.184Z,1012.9
2023-04-12T02:55:09.188Z,1012.8
2023-04-12T02:56:09.190Z,1012.8
2023-04-12T02:57:09.188Z,1012.9
2023-04-12T02:58:09.378Z,1012.9
2023-04-12T02:59:09.233Z,1012.9
2023-04-12T03:00:09.237Z,1012.8
2023-04-12T03:01:09.198Z,1012.7
2023-04-12T03:02:09.370Z,1012.8
2023-04-12T03:03:09.415Z,1012.7
2023-04-12T03:04:09.271Z,1012.7
2023-04-12T03:05:09.302Z,1012.7
2023-04-12T03:06:09.152Z,1012.8
2023-04-12T03:07:09.193Z,1012.8
2023-04-12T03:08:09.255Z,1012.8
2023-04-12T03:09:09.139Z,1012.8
2023-04-12T03:10:09.386Z,1012.8
2023-04-12T03:11:09.175Z,1012.8
2023-04-12T03:12:09.182Z,1012.8
2023-04-12T03:13:09.131Z,1012.9
2023-04-12T03:14:09.164Z,1012.8
2023-04-12T03:15:09.147Z,1012.8
2023-04-12T03:16:09.125Z,1012.8
2023-04-12T03:17:09.155Z,1012.8
2023-04-12T03:18:09.273Z,1012.8
2023-04-12T03:19:09.113Z,1012.8
2023-04-12T03:20:09.124Z,1012.8
2023-04-12T03:21:09.242Z,1012.8
2023-04-12T03:22:09.221Z,1012.8
2023-04-12T03:23:09.267Z,1012.8
2023-04-12T03:24:09.159Z,1012.8
2023-04-12T03:25:09.094Z,1012.7
2023-04-12T03:26:09.129Z,1012.7
2023-04-12T03:27:09.191Z,1012.8
2023-04-12T03:28:09.150Z,1012.7
2023-04-12T03:29:11.161Z,1012.8
2023-04-12T03:30:09.118Z,1012.8
2023-04-12T03:31:09.140Z,1012.8
2023-04-12T03:32:09.110Z,1012.8
2023-04-12T03:33:09.152Z,1012.8
2023-04-12T03:34:09.107Z,1012.7
2023-04-12T03:35:09.357Z,1012.8
2023-04-12T03:36:09.072Z,1012.8
2023-04-12T03:37:09.187Z,1012.8
2023-04-12T03:38:09.081Z,1012.7
2023-04-12T03:39:09.129Z,1012.8
2023-04-12T03:40:09.063Z,1012.8
2023-04-12T03:41:09.115Z,1012.7
2023-04-12T03:42:18.460Z,1012.7
2023-04-12T03:43:09.201Z,1012.7
2023-04-12T03:44:09.103Z,1012.8
2023-04-12T03:45:09.067Z,1012.7
2023-04-12T03:46:09.075Z,1012.8
2023-04-12T03:47:09.094Z,1012.7
2023-04-12T03:48:09.136Z,1012.8
2023-04-12T03:49:09.378Z,1012.8
2023-04-12T03:50:12.362Z,1012.8
2023-04-12T03:51:09.085Z,1012.8
2023-04-12T03:52:09.181Z,1012.9
2023-04-12T03:53:09.077Z,1012.8
2023-04-12T03:54:09.040Z,1012.8
2023-04-12T03:55:09.200Z,1012.8
2023-04-12T03:56:09.065Z,1012.8
2023-04-12T03:57:09.039Z,1012.8
2023-04-12T03:58:09.042Z,1012.8
2023-04-12T03:59:09.165Z,1012.7
2023-04-12T04:00:09.146Z,1012.7
2023-04-12T04:01:09.131Z,1012.7
2023-04-12T04:02:09.137Z,1012.7
2023-04-12T04:03:09.859Z,1012.7
2023-04-12T04:04:09.240Z,1012.7
2023-04-12T04:05:09.165Z,1012.7
2023-04-12T04:06:09.096Z,1012.6
2023-04-12T04:07:10.048Z,1012.7
2023-04-12T04:08:09.060Z,1012.8
2023-04-12T04:09:09.049Z,1012.7
2023-04-12T04:10:09.042Z,1012.8
2023-04-12T04:11:09.136Z,1012.8
2023-04-12T04:12:09.016Z,1012.8
2023-04-12T04:13:09.110Z,1012.7
2023-04-12T04:14:09.010Z,1012.8
2023-04-12T04:15:09.014Z,1012.8
2023-04-12T04:16:09.060Z,1012.7
2023-04-12T04:17:09.070Z,1012.7
2023-04-12T04:18:09.051Z,1012.8
2023-04-12T04:19:09.056Z,1012.8
2023-04-12T04:20:09.088Z,1012.8
2023-04-12T04:21:09.036Z,1012.8
2023-04-12T04:22:09.025Z,1012.8
2023-04-12T04:23:09.022Z,1012.8
2023-04-12T04:24:08.991Z,1012.7
2023-04-12T04:25:09.016Z,1012.8
2023-04-12T04:26:08.995Z,1012.8
2023-04-12T04:27:09.186Z,1012.8
2023-04-12T04:28:09.065Z,1012.7
2023-04-12T04:29:09.001Z,1012.7
2023-04-12T04:30:08.981Z,1012.7
2023-04-12T04:31:08.993Z,1012.8
2023-04-12T04:32:09.011Z,1012.7
2023-04-12T04:33:09.394Z,1012.7
2023-04-12T04:35:09.030Z,1012.7
2023-04-12T04:36:08.993Z,1012.7
2023-04-12T04:37:09.047Z,1012.7
2023-04-12T04:38:09.073Z,1012.7
2023-04-12T04:39:09.266Z,1012.8
2023-04-12T04:40:09.000Z,1012.8
2023-04-12T04:41:08.997Z,1012.7
2023-04-12T04:42:09.022Z,1012.8
2023-04-12T04:43:08.985Z,1012.8
2023-04-12T04:44:09.010Z,1012.9
2023-04-12T04:45:09.007Z,1012.8
2023-04-12T04:46:09.019Z,1012.8
2023-04-12T04:47:09.060Z,1012.7
2023-04-12T04:48:09.029Z,1012.8
2023-04-12T04:49:08.943Z,1012.8
2023-04-12T04:50:09.094Z,1012.8
2023-04-12T04:51:08.950Z,1012.8
2023-04-12T04:52:09.007Z,1012.8
2023-04-12T04:53:09.153Z,1012.8
2023-04-12T04:54:08.989Z,1012.8
2023-04-12T04:55:11.047Z,1012.8
2023-04-12T04:56:09.002Z,1012.8
2023-04-12T04:57:09.005Z,1012.8
2023-04-12T04:58:09.052Z,1012.9
2023-04-12T04:59:08.991Z,1012.8
2023-04-12T05:00:08.991Z,1012.9
2023-04-12T05:01:09.138Z,1012.9
2023-04-12T05:02:09.064Z,1012.9
2023-04-12T05:03:09.083Z,1012.9
2023-04-12T05:04:09.265Z,1012.9
2023-04-12T05:05:09.069Z,1012.9
2023-04-12T05:06:08.954Z,1012.9
2023-04-12T05:07:09.358Z,1012.9
2023-04-12T05:08:08.995Z,1012.9
2023-04-12T05:09:08.972Z,1012.9
2023-04-12T05:10:09.099Z,1013.0
2023-04-12T05:11:08.958Z,1013.0
2023-04-12T05:12:08.987Z,1012.9
2023-04-12T05:13:08.949Z,1012.9
2023-04-12T05:14:10.222Z,1012.9
2023-04-12T05:15:12.033Z,1012.9
2023-04-12T05:16:09.040Z,1013.0
2023-04-12T05:17:08.942Z,1012.8
2023-04-12T05:18:08.981Z,1012.9
2023-04-12T05:19:08.932Z,1012.9
2023-04-12T05:20:08.915Z,1012.8
2023-04-12T05:21:08.918Z,1012.9
2023-04-12T05:22:08.908Z,1012.9
2023-04-12T05:23:09.157Z,1012.9
2023-04-12T05:24:08.939Z,1012.9
2023-04-12T05:25:08.890Z,1013.0
2023-04-12T05:26:08.887Z,1013.0
2023-04-12T05:27:08.900Z,1013.0
2023-04-12T05:28:08.968Z,1013.0
2023-04-12T05:29:08.969Z,1013.1
2023-04-12T05:30:08.899Z,1012.9
2023-04-12T05:31:08.963Z,1013.0
2023-04-12T05:32:08.912Z,1013.0
2023-04-12T05:33:08.914Z,1013.1
2023-04-12T05:34:09.055Z,1013.1
2023-04-12T05:35:08.903Z,1013.0
2023-04-12T05:36:08.913Z,1013.0
2023-04-12T05:37:08.950Z,1013.1
2023-04-12T05:38:08.994Z,1013.1
2023-04-12T05:39:08.906Z,1013.2
2023-04-12T05:40:08.881Z,1013.2
2023-04-12T05:41:08.872Z,1013.2
2023-04-12T05:42:08.905Z,1013.2
2023-04-12T05:43:08.923Z,1013.2
2023-04-12T05:44:08.912Z,1013.2
2023-04-12T05:45:09.003Z,1013.2
2023-04-12T05:46:08.956Z,1013.1
2023-04-12T05:47:08.850Z,1013.2
2023-04-12T05:48:08.985Z,1013.1
2023-04-12T05:49:08.917Z,1013.1
2023-04-12T05:50:08.875Z,1013.1
2023-04-12T05:51:08.861Z,1013.1
2023-04-12T05:52:08.865Z,1013.1
2023-04-12T05:53:08.863Z,1013.1
2023-04-12T05:54:08.873Z,1013.1
2023-04-12T05:55:08.885Z,1013.1
2023-04-12T05:56:08.992Z,1013.1
2023-04-12T05:57:08.916Z,1013.1
2023-04-12T05:58:08.873Z,1013.1
2023-04-12T05:59:08.946Z,1013.0
2023-04-12T06:00:08.867Z,1013.0
2023-04-12T06:01:08.847Z,1013.1
2023-04-12T06:02:08.924Z,1013.1
2023-04-12T06:03:08.966Z,1013.1
2023-04-12T06:04:08.984Z,1013.0
2023-04-12T06:05:09.059Z,1013.1
2023-04-12T06:06:08.963Z,1013.0
2023-04-12T06:07:09.043Z,1013.0
2023-04-12T06:08:09.128Z,1013.1
2023-04-12T06:09:08.858Z,1013.0
2023-04-12T06:10:09.197Z,1013.0
2023-04-12T06:11:09.095Z,1013.0
2023-04-12T06:12:09.057Z,1013.0
2023-04-12T06:13:08.836Z,1013.0
2023-04-12T06:14:11.194Z,1013.0
2023-04-12T06:15:08.842Z,1013.0
2023-04-12T06:16:08.880Z,1013.1
2023-04-12T06:17:08.966Z,1013.1
2023-04-12T06:18:08.959Z,1013.0
2023-04-12T06:19:08.804Z,1013.0
2023-04-12T06:20:08.824Z,1013.1
2023-04-12T06:21:08.856Z,1013.0
2023-04-12T06:22:08.813Z,1013.0
2023-04-12T06:23:08.833Z,1013.0
2023-04-12T06:24:08.887Z,1013.0
2023-04-12T06:25:08.819Z,1013.0
2023-04-12T06:26:08.805Z,1013.0
2023-04-12T06:27:08.850Z,1013.0
2023-04-12T06:28:08.913Z,1013.0
2023-04-12T06:29:09.071Z,1012.9
2023-04-12T06:30:08.829Z,1013.0
2023-04-12T06:31:08.894Z,1013.0
2023-04-12T06:32:08.899Z,1013.0
2023-04-12T06:33:09.021Z,1013.1
2023-04-12T06:34:08.824Z,1013.0
2023-04-12T06:35:08.828Z,1013.0
2023-04-12T06:36:08.890Z,1013.0
2023-04-12T06:37:08.865Z,1013.0
2023-04-12T06:38:08.871Z,1013.0
2023-04-12T06:39:08.904Z,1012.9
2023-04-12T06:40:08.945Z,1012.9
2023-04-12T06:41:08.780Z,1012.9
2023-04-12T06:42:08.802Z,1012.9
2023-04-12T06:43:08.755Z,1013.0
2023-04-12T06:44:08.944Z,1013.0
2023-04-12T06:45:08.750Z,1012.9
2023-04-12T06:46:08.770Z,1012.9
2023-04-12T06:47:09.011Z,1013.0
2023-04-12T06:48:08.857Z,1012.9
2023-04-12T06:49:08.822Z,1012.9
2023-04-12T06:50:08.768Z,1013.0
2023-04-12T06:51:08.879Z,1012.9
2023-04-12T06:52:08.813Z,1012.9
2023-04-12T06:53:08.780Z,1012.9
2023-04-12T06:54:08.895Z,1013.0
2023-04-12T06:55:08.790Z,1012.9
2023-04-12T06:56:08.811Z,1012.9
2023-04-12T06:57:08.819Z,1012.9
2023-04-12T06:58:09.085Z,1013.0
2023-04-12T06:59:08.789Z,1012.9
2023-04-12T07:00:08.769Z,1013.0
2023-04-12T07:01:08.779Z,1012.9
2023-04-12T07:02:08.888Z,1012.9
2023-04-12T07:03:13.188Z,1012.9
2023-04-12T07:04:09.055Z,1012.9
2023-04-12T07:05:08.947Z,1013.0
2023-04-12T07:06:21.921Z,1013.0
2023-04-12T07:07:08.929Z,1013.0
2023-04-12T07:08:08.733Z,1013.0
2023-04-12T07:09:08.806Z,1013.0
2023-04-12T07:10:08.736Z,1013.0
2023-04-12T07:11:20.195Z,1013.0
2023-04-12T07:12:08.802Z,1013.0
2023-04-12T07:13:08.782Z,1012.9
2023-04-12T07:14:08.764Z,1012.9
2023-04-12T07:15:08.781Z,1013.0
2023-04-12T07:16:08.744Z,1013.0
2023-04-12T07:17:08.997Z,1012.9
2023-04-12T07:18:08.769Z,1012.9
2023-04-12T07:19:08.698Z,1013.0
2023-04-12T07:20:08.777Z,1012.9
2023-04-12T07:21:08.728Z,1012.9
2023-04-12T07:22:08.782Z,1012.9
2023-04-12T07:23:08.766Z,1012.9
2023-04-12T07:24:17.885Z,1012.8
2023-04-12T07:25:08.719Z,1012.8
2023-04-12T07:26:08.720Z,1012.9
2023-04-12T07:27:08.735Z,1012.9
2023-04-12T07:28:09.197Z,1012.9
2023-04-12T07:29:08.702Z,1012.9
2023-04-12T07:30:08.689Z,1012.8
2023-04-12T07:31:08.744Z,1012.9
2023-04-12T07:32:08.783Z,1012.8
2023-04-12T07:33:19.237Z,1012.8
2023-04-12T07:34:08.887Z,1012.8
2023-04-12T07:35:08.898Z,1012.7
2023-04-12T07:36:08.777Z,1012.7
2023-04-12T07:37:08.796Z,1012.8
2023-04-12T07:38:08.771Z,1012.7
2023-04-12T07:39:08.690Z,1012.7
2023-04-12T07:40:08.817Z,1012.7
2023-04-12T07:41:08.683Z,1012.7
2023-04-12T07:42:08.712Z,1012.8
2023-04-12T07:43:08.749Z,1012.7
2023-04-12T07:44:08.728Z,1012.8
2023-04-12T07:45:08.648Z,1012.7
2023-04-12T07:46:09.003Z,1012.8
2023-04-12T07:47:08.710Z,1012.7
2023-04-12T07:48:08.713Z,1012.8
2023-04-12T07:49:08.901Z,1012.8
2023-04-12T07:50:08.708Z,1012.8
2023-04-12T07:51:08.721Z,1012.8
2023-04-12T07:52:08.872Z,1012.8
2023-04-12T07:53:08.748Z,1012.8
2023-04-12T07:54:08.765Z,1012.7
2023-04-12T07:55:08.832Z,1012.6
2023-04-12T07:56:08.656Z,1012.7
2023-04-12T07:57:08.810Z,1012.6
2023-04-12T07:58:08.640Z,1012.7
2023-04-12T07:59:08.691Z,1012.7
2023-04-12T08:00:08.611Z,1012.6
2023-04-12T08:01:08.657Z,1012.6
2023-04-12T08:02:08.841Z,1012.7
2023-04-12T08:03:08.857Z,1012.6
2023-04-12T08:04:08.727Z,1012.6
2023-04-12T08:05:08.780Z,1012.6
2023-04-12T08:06:08.897Z,1012.6
2023-04-12T08:07:08.920Z,1012.6
2023-04-12T08:08:08.614Z,1012.7
2023-04-12T08:09:08.646Z,1012.7
2023-04-12T08:10:08.736Z,1012.7
2023-04-12T08:11:08.663Z,1012.6
2023-04-12T08:12:08.682Z,1012.6
2023-04-12T08:13:08.718Z,1012.7
2023-04-12T08:14:08.652Z,1012.7
2023-04-12T08:15:08.625Z,1012.7
2023-04-12T08:16:08.679Z,1012.7
2023-04-12T08:17:08.671Z,1012.7
2023-04-12T08:18:08.939Z,1012.7
2023-04-12T08:19:08.593Z,1012.8
2023-04-12T08:20:08.757Z,1012.8
2023-04-12T08:21:08.576Z,1012.6
2023-04-12T08:22:08.626Z,1012.7
2023-04-12T08:23:08.665Z,1012.7
2023-04-12T08:24:08.650Z,1012.6
2023-04-12T08:25:08.582Z,1012.7
2023-04-12T08:26:08.633Z,1012.7
2023-04-12T08:27:08.615Z,1012.6
2023-04-12T08:28:09.588Z,1012.7
2023-04-12T08:29:08.813Z,1012.7
2023-04-12T08:30:08.652Z,1012.7
2023-04-12T08:31:08.766Z,1012.6
2023-04-12T08:32:08.847Z,1012.6
2023-04-12T08:33:08.561Z,1012.7
2023-04-12T08:34:08.748Z,1012.7
2023-04-12T08:35:08.643Z,1012.6
2023-04-12T08:36:08.960Z,1012.6
2023-04-12T08:37:08.685Z,1012.6
2023-04-12T08:38:08.594Z,1012.6
2023-04-12T08:39:08.648Z,1012.6
2023-04-12T08:40:08.676Z,1012.6
2023-04-12T08:41:08.617Z,1012.6
2023-04-12T08:42:08.660Z,1012.6
2023-04-12T08:43:08.633Z,1012.5
2023-04-12T08:44:08.675Z,1012.5
2023-04-12T08:45:08.588Z,1012.6
2023-04-12T08:46:08.645Z,1012.6
2023-04-12T08:47:08.665Z,1012.5
2023-04-12T08:48:08.566Z,1012.4
2023-04-12T08:49:08.567Z,1012.4
2023-04-12T08:50:08.540Z,1012.4
2023-04-12T08:51:08.716Z,1012.4
2023-04-12T08:52:08.827Z,1012.4
2023-04-12T08:53:08.567Z,1012.4
2023-04-12T08:54:08.631Z,1012.4
2023-04-12T08:55:08.563Z,1012.4
2023-04-12T08:56:08.539Z,1012.4
2023-04-12T08:57:08.575Z,1012.5
2023-04-12T08:58:08.542Z,1012.3
2023-04-12T08:59:08.615Z,1012.4
2023-04-12T09:00:08.547Z,1012.3
2023-04-12T09:01:08.598Z,1012.3
2023-04-12T09:02:08.776Z,1012.4
2023-04-12T09:03:08.806Z,1012.3
2023-04-12T09:04:08.845Z,1012.3
2023-04-12T09:05:08.721Z,1012.3
2023-04-12T09:06:08.590Z,1012.4
2023-04-12T09:07:08.636Z,1012.3
2023-04-12T09:08:08.755Z,1012.4
2023-04-12T09:09:08.590Z,1012.4
2023-04-12T09:10:08.690Z,1012.4
2023-04-12T09:11:08.541Z,1012.4
2023-04-12T09:12:08.566Z,1012.4
2023-04-12T09:13:08.534Z,1012.4
2023-04-12T09:14:08.585Z,1012.3
2023-04-12T09:15:08.552Z,1012.4
2023-04-12T09:16:08.570Z,1012.3
2023-04-12T09:17:08.603Z,1012.4
2023-04-12T09:18:08.628Z,1012.3
2023-04-12T09:19:08.554Z,1012.3
2023-04-12T09:20:08.530Z,1012.3
2023-04-12T09:21:08.522Z,1012.4
2023-04-12T09:22:08.522Z,1012.4
2023-04-12T09:23:08.546Z,1012.2
2023-04-12T09:24:10.231Z,1012.3
2023-04-12T09:25:08.490Z,1012.2
2023-04-12T09:26:08.578Z,1012.2
2023-04-12T09:27:12.294Z,1012.2
2023-04-12T09:28:08.659Z,1012.2
2023-04-12T09:29:08.541Z,1012.2
2023-04-12T09:30:08.494Z,1012.2
2023-04-12T09:31:08.482Z,1012.1
2023-04-12T09:32:08.566Z,1012.0
2023-04-12T09:33:08.526Z,1012.0
2023-04-12T09:34:08.531Z,1012.0
2023-04-12T09:35:08.509Z,1012.0
2023-04-12T09:36:08.516Z,1012.1
2023-04-12T09:37:08.475Z,1012.0
2023-04-12T09:38:08.551Z,1012.1
2023-04-12T09:39:08.503Z,1012.0
2023-04-12T09:40:08.517Z,1012.0
2023-04-12T09:41:08.525Z,1012.0
2023-04-12T09:42:18.152Z,1011.9
2023-04-12T09:43:08.452Z,1012.0
2023-04-12T09:44:08.511Z,1011.9
2023-04-12T09:45:08.576Z,1012.0
2023-04-12T09:46:08.554Z,1012.1
2023-04-12T09:47:08.789Z,1012.0
2023-04-12T09:48:08.487Z,1012.0
2023-04-12T09:49:08.500Z,1011.9
2023-04-12T09:50:08.582Z,1012.0
2023-04-12T09:51:08.485Z,1011.9
2023-04-12T09:52:08.451Z,1011.9
2023-04-12T09:53:08.474Z,1011.9
2023-04-12T09:54:08.462Z,1011.9
2023-04-12T09:55:08.506Z,1011.8
2023-04-12T09:56:08.540Z,1011.9
2023-04-12T09:57:08.470Z,1011.9
2023-04-12T09:58:08.585Z,1011.9
2023-04-12T09:59:08.484Z,1011.9
2023-04-12T10:00:08.464Z,1011.9
2023-04-12T10:01:08.517Z,1011.8
2023-04-12T10:02:08.605Z,1011.7
2023-04-12T10:03:08.741Z,1011.7
2023-04-12T10:04:08.997Z,1011.7
2023-04-12T10:05:08.805Z,1011.7
2023-04-12T10:06:08.470Z,1011.7
2023-04-12T10:07:08.433Z,1011.7
2023-04-12T10:08:08.431Z,1011.7
2023-04-12T10:09:08.572Z,1011.7
2023-04-12T10:10:08.465Z,1011.6
2023-04-12T10:11:08.486Z,1011.7
2023-04-12T10:12:08.630Z,1011.6
2023-04-12T10:13:08.438Z,1011.6
2023-04-12T10:14:08.411Z,1011.7
2023-04-12T10:15:08.407Z,1011.6
2023-04-12T10:16:08.694Z,1011.6
2023-04-12T10:17:08.408Z,1011.6
2023-04-12T10:18:08.453Z,1011.6
2023-04-12T10:19:08.451Z,1011.6
2023-04-12T10:20:09.755Z,1011.6
2023-04-12T10:21:08.425Z,1011.6
2023-04-12T10:22:08.479Z,1011.5
2023-04-12T10:23:08.865Z,1011.5
2023-04-12T10:24:08.796Z,1011.6
2023-04-12T10:25:09.005Z,1011.6
2023-04-12T10:26:08.489Z,1011.5
2023-04-12T10:27:08.443Z,1011.5
2023-04-12T10:28:08.419Z,1011.5
2023-04-12T10:29:08.515Z,1011.5
2023-04-12T10:30:08.493Z,1011.5
2023-04-12T10:31:08.468Z,1011.5
2023-04-12T10:32:08.654Z,1011.5
2023-04-12T10:33:08.523Z,1011.5
2023-04-12T10:34:08.425Z,1011.4
2023-04-12T10:35:08.558Z,1011.4
2023-04-12T10:36:08.589Z,1011.5
2023-04-12T10:37:08.574Z,1011.4
2023-04-12T10:38:08.503Z,1011.5
2023-04-12T10:39:08.668Z,1011.5
2023-04-12T10:40:08.441Z,1011.4
2023-04-12T10:41:08.631Z,1011.4
2023-04-12T10:42:08.561Z,1011.4
2023-04-12T10:43:08.441Z,1011.5
2023-04-12T10:44:08.434Z,1011.4
2023-04-12T10:45:08.570Z,1011.4
2023-04-12T10:46:08.425Z,1011.4
2023-04-12T10:47:08.539Z,1011.4
2023-04-12T10:48:08.487Z,1011.4
2023-04-12T10:49:08.522Z,1011.4
2023-04-12T10:50:08.505Z,1011.4
2023-04-12T10:51:08.441Z,1011.4
2023-04-12T10:52:08.427Z,1011.4
2023-04-12T10:53:08.456Z,1011.4
2023-04-12T10:54:08.578Z,1011.4
2023-04-12T10:55:08.468Z,1011.4
2023-04-12T10:56:08.428Z,1011.3
2023-04-12T10:57:08.428Z,1011.3
2023-04-12T10:58:08.423Z,1011.4
2023-04-12T10:59:08.467Z,1011.3
2023-04-12T11:00:08.471Z,1011.3
2023-04-12T11:01:08.478Z,1011.4
2023-04-12T11:02:08.695Z,1011.4
2023-04-12T11:03:08.854Z,1011.3
2023-04-12T11:04:08.521Z,1011.3
2023-04-12T11:05:08.987Z,1011.3
2023-04-12T11:06:26.008Z,1011.3
2023-04-12T11:07:08.467Z,1011.3
2023-04-12T11:08:08.584Z,1011.3
2023-04-12T11:09:08.355Z,1011.3
2023-04-12T11:10:08.397Z,1011.3
2023-04-12T11:11:08.364Z,1011.3
2023-04-12T11:12:10.982Z,1011.3
2023-04-12T11:13:08.530Z,1011.2
2023-04-12T11:14:08.468Z,1011.3
2023-04-12T11:15:08.407Z,1011.3
2023-04-12T11:16:08.474Z,1011.2
2023-04-12T11:17:08.501Z,1011.3
2023-04-12T11:18:08.499Z,1011.2
2023-04-12T11:19:08.338Z,1011.3
2023-04-12T11:20:08.370Z,1011.2
2023-04-12T11:21:08.405Z,1011.2
2023-04-12T11:22:08.416Z,1011.2
2023-04-12T11:23:11.186Z,1011.1
2023-04-12T11:24:08.463Z,1011.1
2023-04-12T11:25:08.448Z,1011.1
2023-04-12T11:26:08.389Z,1011.0
2023-04-12T11:27:08.397Z,1011.1
2023-04-12T11:28:21.211Z,1011.0
2023-04-12T11:29:08.364Z,1010.9
2023-04-12T11:30:08.347Z,1010.9
2023-04-12T11:31:08.449Z,1010.9
2023-04-12T11:32:08.487Z,1010.9
2023-04-12T11:33:08.380Z,1010.8
2023-04-12T11:34:08.354Z,1010.9
2023-04-12T11:35:08.351Z,1010.8
2023-04-12T11:36:08.528Z,1010.8
2023-04-12T11:37:08.629Z,1010.8
2023-04-12T11:38:08.300Z,1010.8
2023-04-12T11:39:08.612Z,1010.8
2023-04-12T11:40:08.349Z,1010.8
2023-04-12T11:41:08.352Z,1010.8
2023-04-12T11:42:08.406Z,1010.8
2023-04-12T11:43:08.349Z,1010.8
2023-04-12T11:44:08.350Z,1010.8
2023-04-12T11:45:15.758Z,1010.7
2023-04-12T11:46:08.359Z,1010.8
2023-04-12T11:47:08.524Z,1010.7
2023-04-12T11:48:08.338Z,1010.7
2023-04-12T11:49:08.318Z,1010.8
2023-04-12T11:50:08.339Z,1010.8
2023-04-12T11:51:11.682Z,1010.7
2023-04-12T11:52:08.340Z,1010.6
2023-04-12T11:53:08.312Z,1010.7
2023-04-12T11:54:08.350Z,1010.7
2023-04-12T11:55:08.299Z,1010.8
2023-04-12T11:56:08.332Z,1010.7
2023-04-12T11:57:08.331Z,1010.8
2023-04-12T11:58:08.478Z,1010.7
2023-04-12T11:59:08.308Z,1010.7
2023-04-12T12:00:08.310Z,1010.6
2023-04-12T12:01:08.324Z,1010.7
2023-04-12T12:02:20.990Z,1010.6
2023-04-12T12:03:08.958Z,1010.6
2023-04-12T12:04:11.346Z,1010.5
2023-04-12T12:05:08.474Z,1010.6
2023-04-12T12:06:08.595Z,1010.6
2023-04-12T12:07:08.778Z,1010.5
2023-04-12T12:08:08.326Z,1010.6
2023-04-12T12:09:08.474Z,1010.5
2023-04-12T12:10:08.314Z,1010.6
2023-04-12T12:11:08.993Z,1010.5
2023-04-12T12:12:08.291Z,1010.5
2023-04-12T12:13:09.519Z,1010.5
2023-04-12T12:14:08.299Z,1010.5
2023-04-12T12:15:08.312Z,1010.6
2023-04-12T12:16:08.703Z,1010.5
2023-04-12T12:17:09.534Z,1010.5
2023-04-12T12:18:08.306Z,1010.5
2023-04-12T12:19:08.277Z,1010.5
2023-04-12T12:20:08.596Z,1010.4
2023-04-12T12:21:08.281Z,1010.5
2023-04-12T12:22:08.291Z,1010.4
2023-04-12T12:23:08.292Z,1010.5
2023-04-12T12:24:08.249Z,1010.5
2023-04-12T12:25:08.318Z,1010.4
2023-04-12T12:27:08.385Z,1010.3
2023-04-12T12:28:08.328Z,1010.4
2023-04-12T12:29:08.255Z,1010.4
2023-04-12T12:30:08.254Z,1010.4